Hermitage, AR (71647)

6:20 AM CST on November 23, 2014 (GMT -0600)
RAWS FELSENTHAL AR US | Change Station
CLOSE
Current Station
Personal Weather Station
Location: Huttig, AR
Elevation: 104 ft
Nearby Weather Stations

Elev 104 ft 33.16 °N, 92.19 °W | Updated 57 minutes ago

Rain
Rain
59 °F
Feels Like 59 °F
N
3
Wind Variable Wind from SE
Gusts 8.0 mph

Today
High -- | Low -- °F
--% Chance of Precip.
Yesterday
High -- | Low -- °F
Precip. -- in
6:47 AM 5:02 PM
New Moon, 1% visible
Pressure 29.70 in
Visibility 5.0 miles
Clouds Mostly Cloudy 700 ft
Overcast 1100 ft
Dew Point 59 °F
Humidity 99%
Rainfall 0.10 in
Snow Depth Not available.
UV 0 out of 12
Pollen .30 out of 12
Air Quality Not available.
Flu Activity Not available.
SPECI KLLQ 231200Z AUTO 12005KT 5SM -RA BR BKN007 OVC011 15/13 A2970 RMK AO2 CIG 005V009 P0001 T01500133

More Conditions Fewer Conditions

Pressure 29.70 in
Visibility 5.0 miles
Clouds Mostly Cloudy 700 ft
Overcast 1100 ft
Dew Point 59 °F
Humidity 99%
Rainfall 0.10 in
Snow Depth Not available.
UV 0 out of 12
Pollen .30 out of 12
Air Quality Not available.
Flu Activity Not available.
SPECI KLLQ 231200Z AUTO 12005KT 5SM -RA BR BKN007 OVC011 15/13 A2970 RMK AO2 CIG 005V009 P0001 T01500133

More Conditions Fewer Conditions

10-Day Weather Forecast

Almanac

Astronomy

Nov. 23, 2014 Rise Set
Actual Time
Civil Twilight
Nautical Twilight
Astronomical Twilight
Moon
Length of Visible Light
Length of Day
Tomorrow will be .
, % of the Moon is Illuminated

Today's Extremes

State Highs State Lows

Community

WunderPhotos

Upload Photos

1,773,050 photos uploaded!

WunderBlogs® & News

Nearby

Air Quality

  Air Quality AQ Index Pollutant
Not available.

Snow Depth

Station Depth Elevation

Earthquake Activity

City Distance Mag. Time & Date
Minimum magnitude displayed is 2.5.

Coastal Water Temperatures

Place Temperature

Nearby Weather Stations